sensor_id;sensor_type;location;lat;lon;timestamp;pressure;altitude;pressure_sealevel;temperature;humidity
19005;BME280;9635;52.078;8.648;2023-04-30T00:01:44;101110.75;;;7.64;69.03
19005;BME280;9635;52.078;8.648;2023-04-30T00:06:48;101119.94;;;7.60;69.04
19005;BME280;9635;52.078;8.648;2023-04-30T00:11:51;101118.63;;;7.52;69.22
19005;BME280;9635;52.078;8.648;2023-04-30T00:16:54;101125.50;;;7.40;69.20
19005;BME280;9635;52.078;8.648;2023-04-30T00:21:58;101119.56;;;7.35;69.47
19005;BME280;9635;52.078;8.648;2023-04-30T00:27:02;101128.38;;;7.37;69.44
19005;BME280;9635;52.078;8.648;2023-04-30T00:32:04;101126.97;;;7.45;69.41
19005;BME280;9635;52.078;8.648;2023-04-30T00:37:09;101130.00;;;7.39;69.31
19005;BME280;9635;52.078;8.648;2023-04-30T00:42:11;101135.78;;;7.32;68.90
19005;BME280;9635;52.078;8.648;2023-04-30T00:47:14;101140.69;;;7.23;69.09
19005;BME280;9635;52.078;8.648;2023-04-30T00:52:19;101141.88;;;7.18;69.05
19005;BME280;9635;52.078;8.648;2023-04-30T00:57:22;101151.38;;;7.08;68.95
19005;BME280;9635;52.078;8.648;2023-04-30T01:02:25;101155.88;;;6.90;69.45
19005;BME280;9635;52.078;8.648;2023-04-30T01:07:30;101163.00;;;6.20;71.80
19005;BME280;9635;52.078;8.648;2023-04-30T01:12:37;101163.91;;;6.37;71.47
19005;BME280;9635;52.078;8.648;2023-04-30T01:17:44;101166.19;;;6.45;71.19
19005;BME280;9635;52.078;8.648;2023-04-30T01:22:55;101170.09;;;6.38;71.00
19005;BME280;9635;52.078;8.648;2023-04-30T01:28:04;101167.97;;;6.10;72.32
19005;BME280;9635;52.078;8.648;2023-04-30T01:33:08;101163.16;;;5.99;72.52
19005;BME280;9635;52.078;8.648;2023-04-30T01:38:20;101164.41;;;5.92;72.85
19005;BME280;9635;52.078;8.648;2023-04-30T01:43:34;101164.41;;;5.92;73.15
19005;BME280;9635;52.078;8.648;2023-04-30T01:48:45;101162.94;;;6.04;72.91
19005;BME280;9635;52.078;8.648;2023-04-30T01:53:56;101161.34;;;6.00;72.88
19005;BME280;9635;52.078;8.648;2023-04-30T01:59:02;101171.44;;;6.29;72.45
19005;BME280;9635;52.078;8.648;2023-04-30T02:04:05;101176.06;;;6.43;71.91
19005;BME280;9635;52.078;8.648;2023-04-30T02:09:08;101188.72;;;6.39;71.68
19005;BME280;9635;52.078;8.648;2023-04-30T02:14:12;101191.44;;;6.21;71.86
19005;BME280;9635;52.078;8.648;2023-04-30T02:19:15;101185.63;;;6.30;71.86
19005;BME280;9635;52.078;8.648;2023-04-30T02:24:18;101186.22;;;6.36;71.09
19005;BME280;9635;52.078;8.648;2023-04-30T02:29:22;101198.97;;;6.12;71.38
19005;BME280;9635;52.078;8.648;2023-04-30T02:34:25;101194.66;;;6.10;71.50
19005;BME280;9635;52.078;8.648;2023-04-30T02:39:28;101197.69;;;6.02;71.74
19005;BME280;9635;52.078;8.648;2023-04-30T02:44:33;101197.38;;;6.08;71.57
19005;BME280;9635;52.078;8.648;2023-04-30T02:49:36;101198.09;;;6.12;71.50
19005;BME280;9635;52.078;8.648;2023-04-30T02:54:38;101201.69;;;6.11;71.12
19005;BME280;9635;52.078;8.648;2023-04-30T02:59:42;101202.16;;;6.02;70.29
19005;BME280;9635;52.078;8.648;2023-04-30T03:04:47;101198.16;;;5.93;70.21
19005;BME280;9635;52.078;8.648;2023-04-30T03:09:50;101203.63;;;5.90;70.14
19005;BME280;9635;52.078;8.648;2023-04-30T03:14:55;101203.63;;;5.90;70.24
19005;BME280;9635;52.078;8.648;2023-04-30T03:19:58;101203.63;;;5.90;70.07
19005;BME280;9635;52.078;8.648;2023-04-30T03:25:00;101211.78;;;5.68;70.12
19005;BME280;9635;52.078;8.648;2023-04-30T03:30:06;101212.72;;;5.48;71.06
19005;BME280;9635;52.078;8.648;2023-04-30T03:35:09;101206.66;;;5.44;71.38
19005;BME280;9635;52.078;8.648;2023-04-30T03:40:12;101214.94;;;5.19;72.38
19005;BME280;9635;52.078;8.648;2023-04-30T03:45:16;101214.47;;;5.10;72.75
19005;BME280;9635;52.078;8.648;2023-04-30T03:50:19;101224.63;;;5.20;72.94
19005;BME280;9635;52.078;8.648;2023-04-30T03:55:22;101215.09;;;5.35;72.81
19005;BME280;9635;52.078;8.648;2023-04-30T04:00:27;101211.19;;;5.42;72.36
19005;BME280;9635;52.078;8.648;2023-04-30T04:05:29;101215.59;;;5.43;71.76
19005;BME280;9635;52.078;8.648;2023-04-30T04:10:32;101214.94;;;5.38;71.21
19005;BME280;9635;52.078;8.648;2023-04-30T04:15:38;101209.91;;;5.32;71.05
19005;BME280;9635;52.078;8.648;2023-04-30T04:20:41;101214.94;;;5.38;70.86
19005;BME280;9635;52.078;8.648;2023-04-30T04:25:45;101218.53;;;5.37;70.39
19005;BME280;9635;52.078;8.648;2023-04-30T04:30:51;101215.25;;;5.32;70.13
19005;BME280;9635;52.078;8.648;2023-04-30T04:35:54;101218.75;;;5.33;70.03
19005;BME280;9635;52.078;8.648;2023-04-30T04:40:58;101218.81;;;5.31;70.01
19005;BME280;9635;52.078;8.648;2023-04-30T04:46:02;101219.53;;;5.35;70.26
19005;BME280;9635;52.078;8.648;2023-04-30T04:51:05;101226.31;;;5.42;70.39
19005;BME280;9635;52.078;8.648;2023-04-30T04:56:09;101223.47;;;5.46;70.88
19005;BME280;9635;52.078;8.648;2023-04-30T05:01:13;101223.09;;;5.54;71.16
19005;BME280;9635;52.078;8.648;2023-04-30T05:06:19;101223.22;;;5.70;71.28
19005;BME280;9635;52.078;8.648;2023-04-30T05:11:22;101225.88;;;5.89;71.24
19005;BME280;9635;52.078;8.648;2023-04-30T05:16:27;101225.53;;;5.97;70.91
19005;BME280;9635;52.078;8.648;2023-04-30T05:21:30;101239.13;;;6.09;70.95
19005;BME280;9635;52.078;8.648;2023-04-30T05:26:33;101244.16;;;6.15;70.78
19005;BME280;9635;52.078;8.648;2023-04-30T05:31:37;101245.72;;;6.20;70.68
19005;BME280;9635;52.078;8.648;2023-04-30T05:36:40;101252.72;;;6.22;70.81
19005;BME280;9635;52.078;8.648;2023-04-30T05:41:44;101254.50;;;6.40;70.87
19005;BME280;9635;52.078;8.648;2023-04-30T05:46:49;101261.31;;;6.46;70.37
19005;BME280;9635;52.078;8.648;2023-04-30T05:51:52;101257.09;;;6.59;70.12
19005;BME280;9635;52.078;8.648;2023-04-30T05:56:55;101253.19;;;6.67;69.90
19005;BME280;9635;52.078;8.648;2023-04-30T06:01:59;101254.63;;;6.91;69.68
19005;BME280;9635;52.078;8.648;2023-04-30T06:07:02;101256.31;;;7.10;69.03
19005;BME280;9635;52.078;8.648;2023-04-30T06:12:05;101258.03;;;7.28;68.54
19005;BME280;9635;52.078;8.648;2023-04-30T06:17:09;101245.22;;;7.50;67.69
19005;BME280;9635;52.078;8.648;2023-04-30T06:22:12;101250.88;;;7.78;66.85
19005;BME280;9635;52.078;8.648;2023-04-30T06:27:14;101260.28;;;7.85;64.72
19005;BME280;9635;52.078;8.648;2023-04-30T06:32:19;101262.44;;;7.78;63.81
19005;BME280;9635;52.078;8.648;2023-04-30T06:37:22;101259.84;;;7.92;64.02
19005;BME280;9635;52.078;8.648;2023-04-30T06:42:25;101266.94;;;8.09;63.65
19005;BME280;9635;52.078;8.648;2023-04-30T06:47:30;101278.94;;;8.34;63.26
19005;BME280;9635;52.078;8.648;2023-04-30T06:52:35;101282.97;;;8.57;62.85
19005;BME280;9635;52.078;8.648;2023-04-30T06:57:38;101275.63;;;9.05;62.42
19005;BME280;9635;52.078;8.648;2023-04-30T07:02:42;101281.25;;;9.31;60.52
19005;BME280;9635;52.078;8.648;2023-04-30T07:07:48;101277.41;;;9.78;59.88
19005;BME280;9635;52.078;8.648;2023-04-30T07:12:51;101285.69;;;10.16;57.37
19005;BME280;9635;52.078;8.648;2023-04-30T07:17:55;101288.63;;;9.99;57.60
19005;BME280;9635;52.078;8.648;2023-04-30T07:22:58;101282.16;;;10.15;57.08
19005;BME280;9635;52.078;8.648;2023-04-30T07:28:01;101282.56;;;10.64;55.10
19005;BME280;9635;52.078;8.648;2023-04-30T07:33:06;101275.97;;;10.95;54.63
19005;BME280;9635;52.078;8.648;2023-04-30T07:38:10;101273.00;;;11.12;53.53
19005;BME280;9635;52.078;8.648;2023-04-30T07:43:13;101270.84;;;11.43;53.28
19005;BME280;9635;52.078;8.648;2023-04-30T07:48:17;101271.59;;;11.32;52.13
19005;BME280;9635;52.078;8.648;2023-04-30T07:53:20;101261.97;;;11.79;52.49
19005;BME280;9635;52.078;8.648;2023-04-30T07:58:23;101258.69;;;12.36;50.22
19005;BME280;9635;52.078;8.648;2023-04-30T08:03:27;101266.78;;;12.60;49.11
19005;BME280;9635;52.078;8.648;2023-04-30T08:08:30;101270.16;;;12.75;47.73
19005;BME280;9635;52.078;8.648;2023-04-30T08:13:33;101275.38;;;13.01;46.01
19005;BME280;9635;52.078;8.648;2023-04-30T08:18:38;101277.84;;;13.15;46.19
19005;BME280;9635;52.078;8.648;2023-04-30T08:23:44;101282.56;;;13.36;45.31
19005;BME280;9635;52.078;8.648;2023-04-30T08:28:47;101274.50;;;13.92;45.59
19005;BME280;9635;52.078;8.648;2023-04-30T08:33:52;101265.41;;;13.70;43.58
19005;BME280;9635;52.078;8.648;2023-04-30T08:38:55;101266.78;;;13.65;44.71
19005;BME280;9635;52.078;8.648;2023-04-30T08:44:00;101268.50;;;13.88;43.41
19005;BME280;9635;52.078;8.648;2023-04-30T08:49:04;101261.72;;;13.49;42.93
19005;BME280;9635;52.078;8.648;2023-04-30T08:54:10;101251.91;;;14.04;43.70
19005;BME280;9635;52.078;8.648;2023-04-30T08:59:14;101261.84;;;14.79;42.81
19005;BME280;9635;52.078;8.648;2023-04-30T09:04:19;101261.69;;;14.60;42.15
19005;BME280;9635;52.078;8.648;2023-04-30T09:09:27;101245.78;;;14.67;41.81
19005;BME280;9635;52.078;8.648;2023-04-30T09:14:30;101252.88;;;14.79;43.19
19005;BME280;9635;52.078;8.648;2023-04-30T09:19:36;101250.47;;;15.27;42.60
19005;BME280;9635;52.078;8.648;2023-04-30T09:24:45;101243.47;;;15.36;41.17
19005;BME280;9635;52.078;8.648;2023-04-30T09:29:48;101245.84;;;16.10;41.37
19005;BME280;9635;52.078;8.648;2023-04-30T09:34:52;101236.94;;;16.68;39.94
19005;BME280;9635;52.078;8.648;2023-04-30T09:39:55;101240.63;;;16.77;39.47
19005;BME280;9635;52.078;8.648;2023-04-30T09:44:58;101233.22;;;16.79;40.07
19005;BME280;9635;52.078;8.648;2023-04-30T09:50:04;101234.28;;;17.06;38.79
19005;BME280;9635;52.078;8.648;2023-04-30T09:55:07;101238.34;;;16.72;38.82
19005;BME280;9635;52.078;8.648;2023-04-30T10:00:11;101229.63;;;16.98;37.52
19005;BME280;9635;52.078;8.648;2023-04-30T10:05:17;101229.66;;;17.35;38.50
19005;BME280;9635;52.078;8.648;2023-04-30T10:10:21;101220.81;;;17.33;37.19
19005;BME280;9635;52.078;8.648;2023-04-30T10:15:25;101209.72;;;17.54;37.09
19005;BME280;9635;52.078;8.648;2023-04-30T10:20:34;101208.78;;;17.73;37.28
19005;BME280;9635;52.078;8.648;2023-04-30T10:25:38;101206.47;;;18.24;36.59
19005;BME280;9635;52.078;8.648;2023-04-30T10:30:41;101204.81;;;17.67;35.61
19005;BME280;9635;52.078;8.648;2023-04-30T10:35:51;101200.75;;;17.44;36.50
19005;BME280;9635;52.078;8.648;2023-04-30T10:40:55;101186.59;;;17.78;36.94
19005;BME280;9635;52.078;8.648;2023-04-30T10:45:59;101184.88;;;18.58;36.57
19005;BME280;9635;52.078;8.648;2023-04-30T10:51:04;101182.34;;;19.35;34.76
19005;BME280;9635;52.078;8.648;2023-04-30T10:56:07;101172.09;;;20.22;33.55
19005;BME280;9635;52.078;8.648;2023-04-30T11:01:11;101162.38;;;21.49;31.35
19005;BME280;9635;52.078;8.648;2023-04-30T11:06:16;101161.03;;;21.44;30.43
19005;BME280;9635;52.078;8.648;2023-04-30T11:11:21;101161.31;;;21.58;30.73
19005;BME280;9635;52.078;8.648;2023-04-30T11:16:27;101158.50;;;22.74;30.15
19005;BME280;9635;52.078;8.648;2023-04-30T11:21:32;101158.75;;;23.17;28.88
19005;BME280;9635;52.078;8.648;2023-04-30T11:27:02;101156.09;;;23.09;29.61
19005;BME280;9635;52.078;8.648;2023-04-30T11:32:05;101141.25;;;23.33;29.11
19005;BME280;9635;52.078;8.648;2023-04-30T11:37:11;101143.22;;;23.54;28.90
19005;BME280;9635;52.078;8.648;2023-04-30T11:42:18;101127.22;;;23.73;29.05
19005;BME280;9635;52.078;8.648;2023-04-30T11:47:21;101136.56;;;23.63;29.17
19005;BME280;9635;52.078;8.648;2023-04-30T11:52:25;101126.03;;;24.18;28.45
19005;BME280;9635;52.078;8.648;2023-04-30T11:57:34;101121.50;;;24.10;28.93
19005;BME280;9635;52.078;8.648;2023-04-30T12:02:37;101126.00;;;23.97;28.33
19005;BME280;9635;52.078;8.648;2023-04-30T12:07:46;101116.78;;;23.17;28.65
19005;BME280;9635;52.078;8.648;2023-04-30T12:12:49;101114.44;;;22.46;29.60
19005;BME280;9635;52.078;8.648;2023-04-30T12:17:55;101110.13;;;22.06;28.96
19005;BME280;9635;52.078;8.648;2023-04-30T12:23:00;101106.41;;;21.76;29.75
19005;BME280;9635;52.078;8.648;2023-04-30T12:28:03;101105.50;;;21.83;30.64
19005;BME280;9635;52.078;8.648;2023-04-30T12:33:09;101108.66;;;22.18;29.58
19005;BME280;9635;52.078;8.648;2023-04-30T12:38:15;101101.41;;;21.79;30.38
19005;BME280;9635;52.078;8.648;2023-04-30T12:43:18;101086.38;;;21.83;29.50
19005;BME280;9635;52.078;8.648;2023-04-30T12:48:22;101088.97;;;21.77;29.27
19005;BME280;9635;52.078;8.648;2023-04-30T12:53:27;101083.84;;;21.97;29.33
19005;BME280;9635;52.078;8.648;2023-04-30T12:58:30;101086.72;;;21.80;30.26
19005;BME280;9635;52.078;8.648;2023-04-30T13:03:33;101078.22;;;21.98;29.08
19005;BME280;9635;52.078;8.648;2023-04-30T13:08:38;101060.53;;;22.24;30.26
19005;BME280;9635;52.078;8.648;2023-04-30T13:13:57;101056.13;;;22.75;28.94
19005;BME280;9635;52.078;8.648;2023-04-30T13:19:00;101055.66;;;22.19;30.10
19005;BME280;9635;52.078;8.648;2023-04-30T13:24:05;101038.81;;;21.61;30.77
19005;BME280;9635;52.078;8.648;2023-04-30T13:29:08;101038.78;;;21.93;29.82
19005;BME280;9635;52.078;8.648;2023-04-30T13:34:10;101035.44;;;21.51;30.13
19005;BME280;9635;52.078;8.648;2023-04-30T13:39:15;101031.25;;;21.95;30.39
19005;BME280;9635;52.078;8.648;2023-04-30T13:44:17;101012.59;;;22.66;29.67
19005;BME280;9635;52.078;8.648;2023-04-30T13:49:20;101012.72;;;22.34;30.11
19005;BME280;9635;52.078;8.648;2023-04-30T13:54:24;101001.06;;;22.41;29.47
19005;BME280;9635;52.078;8.648;2023-04-30T13:59:27;101002.31;;;22.53;30.11
19005;BME280;9635;52.078;8.648;2023-04-30T14:04:31;101005.13;;;22.45;30.08
19005;BME280;9635;52.078;8.648;2023-04-30T14:09:35;101005.31;;;22.43;30.18
19005;BME280;9635;52.078;8.648;2023-04-30T14:14:38;101001.34;;;22.75;30.12
19005;BME280;9635;52.078;8.648;2023-04-30T14:19:41;100998.97;;;22.87;30.42
19005;BME280;9635;52.078;8.648;2023-04-30T14:24:45;100993.06;;;22.69;29.78
19005;BME280;9635;52.078;8.648;2023-04-30T14:29:48;100991.91;;;22.48;30.53
19005;BME280;9635;52.078;8.648;2023-04-30T14:34:51;100986.81;;;22.45;30.71
19005;BME280;9635;52.078;8.648;2023-04-30T14:39:55;100972.47;;;22.43;30.10
19005;BME280;9635;52.078;8.648;2023-04-30T14:44:59;100980.44;;;21.77;29.97
19005;BME280;9635;52.078;8.648;2023-04-30T14:50:02;100982.09;;;22.01;30.82
19005;BME280;9635;52.078;8.648;2023-04-30T14:55:07;100970.50;;;22.67;30.39
19005;BME280;9635;52.078;8.648;2023-04-30T15:00:11;100965.06;;;22.14;29.59
19005;BME280;9635;52.078;8.648;2023-04-30T15:05:14;100965.69;;;21.86;30.82
19005;BME280;9635;52.078;8.648;2023-04-30T15:10:19;100950.56;;;20.90;31.12
19005;BME280;9635;52.078;8.648;2023-04-30T15:15:22;100952.19;;;21.62;30.32
19005;BME280;9635;52.078;8.648;2023-04-30T15:20:28;100942.00;;;21.94;30.17
19005;BME280;9635;52.078;8.648;2023-04-30T15:25:32;100946.59;;;22.16;29.83
19005;BME280;9635;52.078;8.648;2023-04-30T15:30:35;100936.91;;;21.91;29.56
19005;BME280;9635;52.078;8.648;2023-04-30T15:35:39;100931.16;;;21.62;29.74
19005;BME280;9635;52.078;8.648;2023-04-30T15:40:43;100933.66;;;21.72;29.75
19005;BME280;9635;52.078;8.648;2023-04-30T15:45:46;100923.44;;;21.89;30.12
19005;BME280;9635;52.078;8.648;2023-04-30T15:50:49;100933.06;;;22.00;29.65
19005;BME280;9635;52.078;8.648;2023-04-30T15:55:53;100925.22;;;21.59;29.07
19005;BME280;9635;52.078;8.648;2023-04-30T16:00:57;100923.44;;;21.66;30.26
19005;BME280;9635;52.078;8.648;2023-04-30T16:06:00;100918.16;;;21.64;29.07
19005;BME280;9635;52.078;8.648;2023-04-30T16:11:05;100910.03;;;21.33;30.57
19005;BME280;9635;52.078;8.648;2023-04-30T16:16:08;100906.72;;;21.61;30.50
19005;BME280;9635;52.078;8.648;2023-04-30T16:21:11;100903.41;;;21.51;30.13
19005;BME280;9635;52.078;8.648;2023-04-30T16:26:15;100904.25;;;21.28;30.38
19005;BME280;9635;52.078;8.648;2023-04-30T16:31:18;100902.41;;;21.29;31.04
19005;BME280;9635;52.078;8.648;2023-04-30T16:36:23;100895.16;;;21.36;30.79
19005;BME280;9635;52.078;8.648;2023-04-30T16:41:28;100882.84;;;20.54;30.82
19005;BME280;9635;52.078;8.648;2023-04-30T16:46:31;100877.41;;;20.54;31.92
19005;BME280;9635;52.078;8.648;2023-04-30T16:51:34;100882.38;;;20.43;32.05
19005;BME280;9635;52.078;8.648;2023-04-30T16:56:38;100881.91;;;20.70;31.74
19005;BME280;9635;52.078;8.648;2023-04-30T17:01:41;100876.28;;;20.72;31.25
19005;BME280;9635;52.078;8.648;2023-04-30T17:06:44;100871.69;;;21.64;30.38
19005;BME280;9635;52.078;8.648;2023-04-30T17:11:49;100855.78;;;24.56;27.24
19005;BME280;9635;52.078;8.648;2023-04-30T17:16:52;100848.19;;;26.50;25.03
19005;BME280;9635;52.078;8.648;2023-04-30T17:21:55;100852.78;;;22.88;27.93
19005;BME280;9635;52.078;8.648;2023-04-30T17:26:59;100855.31;;;20.64;30.52
19005;BME280;9635;52.078;8.648;2023-04-30T17:32:04;100854.47;;;20.64;31.35
19005;BME280;9635;52.078;8.648;2023-04-30T17:37:07;100851.53;;;19.78;31.75
19005;BME280;9635;52.078;8.648;2023-04-30T17:42:11;100855.31;;;18.53;33.87
19005;BME280;9635;52.078;8.648;2023-04-30T17:47:14;100849.06;;;17.40;35.43
19005;BME280;9635;52.078;8.648;2023-04-30T17:52:17;100849.44;;;16.91;36.08
19005;BME280;9635;52.078;8.648;2023-04-30T17:57:21;100851.78;;;16.58;36.68
19005;BME280;9635;52.078;8.648;2023-04-30T18:02:25;100849.53;;;16.26;37.03
19005;BME280;9635;52.078;8.648;2023-04-30T18:07:28;100849.06;;;16.03;37.74
19005;BME280;9635;52.078;8.648;2023-04-30T18:12:32;100846.00;;;15.79;37.57
19005;BME280;9635;52.078;8.648;2023-04-30T18:17:35;100846.66;;;15.43;38.30
19005;BME280;9635;52.078;8.648;2023-04-30T18:22:38;100842.06;;;15.24;38.77
19005;BME280;9635;52.078;8.648;2023-04-30T18:27:45;100842.38;;;15.02;39.37
19005;BME280;9635;52.078;8.648;2023-04-30T18:32:48;100848.94;;;14.90;39.46
19005;BME280;9635;52.078;8.648;2023-04-30T18:37:51;100843.50;;;14.70;40.15
19005;BME280;9635;52.078;8.648;2023-04-30T18:42:55;100841.63;;;14.51;40.41
19005;BME280;9635;52.078;8.648;2023-04-30T18:47:58;100840.25;;;14.36;40.78
19005;BME280;9635;52.078;8.648;2023-04-30T18:53:01;100838.94;;;14.21;41.02
19005;BME280;9635;52.078;8.648;2023-04-30T18:58:06;100833.19;;;14.04;41.82
19005;BME280;9635;52.078;8.648;2023-04-30T19:03:09;100839.22;;;13.87;41.86
19005;BME280;9635;52.078;8.648;2023-04-30T19:08:12;100835.56;;;13.67;41.92
19005;BME280;9635;52.078;8.648;2023-04-30T19:13:17;100840.88;;;13.57;42.11
19005;BME280;9635;52.078;8.648;2023-04-30T19:18:20;100845.66;;;13.44;42.09
19005;BME280;9635;52.078;8.648;2023-04-30T19:23:25;100850.84;;;13.24;42.09
19005;BME280;9635;52.078;8.648;2023-04-30T19:28:32;100852.13;;;13.20;42.92
19005;BME280;9635;52.078;8.648;2023-04-30T19:33:35;100852.91;;;13.11;42.78
19005;BME280;9635;52.078;8.648;2023-04-30T19:38:40;100857.84;;;13.06;42.71
19005;BME280;9635;52.078;8.648;2023-04-30T19:43:44;100857.25;;;12.91;42.75
19005;BME280;9635;52.078;8.648;2023-04-30T19:48:47;100852.63;;;12.82;43.13
19005;BME280;9635;52.078;8.648;2023-04-30T19:53:50;100858.66;;;12.74;43.29
19005;BME280;9635;52.078;8.648;2023-04-30T19:58:55;100859.44;;;12.65;44.33
19005;BME280;9635;52.078;8.648;2023-04-30T20:03:57;100858.63;;;12.53;44.18
19005;BME280;9635;52.078;8.648;2023-04-30T20:09:01;100847.47;;;12.35;44.83
19005;BME280;9635;52.078;8.648;2023-04-30T20:14:05;100845.63;;;12.25;44.97
19005;BME280;9635;52.078;8.648;2023-04-30T20:19:08;100851.25;;;12.22;45.14
19005;BME280;9635;52.078;8.648;2023-04-30T20:24:11;100842.44;;;12.20;45.08
19005;BME280;9635;52.078;8.648;2023-04-30T20:29:15;100846.00;;;12.09;44.98
19005;BME280;9635;52.078;8.648;2023-04-30T20:34:19;100840.50;;;11.99;45.64
19005;BME280;9635;52.078;8.648;2023-04-30T20:39:21;100830.09;;;11.83;45.82
19005;BME280;9635;52.078;8.648;2023-04-30T20:44:26;100828.75;;;11.78;46.31
19005;BME280;9635;52.078;8.648;2023-04-30T20:49:29;100818.47;;;11.71;46.38
19005;BME280;9635;52.078;8.648;2023-04-30T20:54:31;100821.28;;;11.70;46.07
19005;BME280;9635;52.078;8.648;2023-04-30T20:59:36;100811.00;;;11.53;46.42
19005;BME280;9635;52.078;8.648;2023-04-30T21:04:39;100807.81;;;11.47;47.14
19005;BME280;9635;52.078;8.648;2023-04-30T21:09:42;100803.34;;;11.35;47.43
19005;BME280;9635;52.078;8.648;2023-04-30T21:14:46;100806.66;;;11.27;47.52
19005;BME280;9635;52.078;8.648;2023-04-30T21:19:49;100804.38;;;11.10;47.83
19005;BME280;9635;52.078;8.648;2023-04-30T21:24:52;100811.22;;;11.03;48.24
19005;BME280;9635;52.078;8.648;2023-04-30T21:29:57;100807.72;;;10.90;47.64
19005;BME280;9635;52.078;8.648;2023-04-30T21:34:59;100805.56;;;10.71;47.50
19005;BME280;9635;52.078;8.648;2023-04-30T21:40:03;100803.00;;;10.69;48.11
19005;BME280;9635;52.078;8.648;2023-04-30T21:45:08;100792.72;;;10.63;48.16
19005;BME280;9635;52.078;8.648;2023-04-30T21:50:11;100789.91;;;10.41;47.89
19005;BME280;9635;52.078;8.648;2023-04-30T21:55:14;100790.44;;;10.46;48.45
19005;BME280;9635;52.078;8.648;2023-04-30T22:00:18;100790.81;;;10.52;48.26
19005;BME280;9635;52.078;8.648;2023-04-30T22:05:21;100786.16;;;10.43;47.87
19005;BME280;9635;52.078;8.648;2023-04-30T22:10:24;100790.06;;;10.50;48.98
19005;BME280;9635;52.078;8.648;2023-04-30T22:15:28;100779.47;;;10.49;49.08
19005;BME280;9635;52.078;8.648;2023-04-30T22:20:48;100773.53;;;10.56;49.15
19005;BME280;9635;52.078;8.648;2023-04-30T22:25:51;100775.78;;;10.50;48.14
19005;BME280;9635;52.078;8.648;2023-04-30T22:30:58;100769.59;;;10.36;48.28
19005;BME280;9635;52.078;8.648;2023-04-30T22:36:02;100755.69;;;10.31;48.57
19005;BME280;9635;52.078;8.648;2023-04-30T22:41:05;100759.47;;;10.29;48.74
19005;BME280;9635;52.078;8.648;2023-04-30T22:46:09;100752.19;;;10.18;48.44
19005;BME280;9635;52.078;8.648;2023-04-30T22:51:12;100744.69;;;10.10;48.98
19005;BME280;9635;52.078;8.648;2023-04-30T22:56:15;100745.47;;;10.00;49.18
19005;BME280;9635;52.078;8.648;2023-04-30T23:01:19;100735.38;;;10.03;48.79
19005;BME280;9635;52.078;8.648;2023-04-30T23:06:22;100730.06;;;9.90;48.54
19005;BME280;9635;52.078;8.648;2023-04-30T23:11:25;100733.25;;;9.83;48.93
19005;BME280;9635;52.078;8.648;2023-04-30T23:16:29;100730.06;;;9.65;49.57
19005;BME280;9635;52.078;8.648;2023-04-30T23:21:32;100725.59;;;9.53;49.70
19005;BME280;9635;52.078;8.648;2023-04-30T23:26:35;100728.50;;;9.49;49.94
19005;BME280;9635;52.078;8.648;2023-04-30T23:31:39;100724.53;;;9.42;49.67
19005;BME280;9635;52.078;8.648;2023-04-30T23:36:42;100723.34;;;9.34;49.85
19005;BME280;9635;52.078;8.648;2023-04-30T23:41:44;100720.78;;;9.19;50.29
19005;BME280;9635;52.078;8.648;2023-04-30T23:46:49;100720.47;;;9.11;50.58
19005;BME280;9635;52.078;8.648;2023-04-30T23:51:52;100715.66;;;9.16;50.34
19005;BME280;9635;52.078;8.648;2023-04-30T23:56:54;100701.38;;;9.16;50.33
